Search for airport 
image banner adimage banner adimage banner ad
image banner ad

4IA7 - Witcombe Field

Located in Cedar Falls, United States

ICAO - 4IA7, IATA -

Data provided by Airmate  

General information

Coordinates: N42°28'19" W92°29'43"
Elevation is 1000 feet MSL.
Magnetic variation is 03° East
View others Airports in Iowa

Operational data

Special qualification required
Current time UTC:
Current local time:
Weather at : KALO - Waterloo Rgnl ( 12 km )
METAR: KALO 181654Z 00000KT 10SM CLR 31/13 A2982 RMK AO2 SLP089 T03060128
TAF: KALO 181130Z 1812/1912 35005KT P6SM FEW150 FM182200 VRB03KT P6SM FEW250
View NOTAMs / SUP AIP / TFR affecting this airport [VIEW]
Communications frequencies: [VIEW]

Runways:

RWY identifierQFULength (ft)Width (ft)SurfaceLDA (ft)
181700100GRASS
361700100GRASS

Airport contact information

Address: Cedar Falls United States

Satellite view of 4IA7